sensor_id;sensor_type;location;lat;lon;timestamp;temperature;humidity
45044;DHT22;30784;48.490;9.688;2023-08-24T00:00:10;25.70;42.90
45044;DHT22;30784;48.490;9.688;2023-08-24T00:02:36;25.70;43.00
45044;DHT22;30784;48.490;9.688;2023-08-24T00:05:02;25.60;43.00
45044;DHT22;30784;48.490;9.688;2023-08-24T00:07:28;25.60;43.20
45044;DHT22;30784;48.490;9.688;2023-08-24T00:09:54;25.60;43.20
45044;DHT22;30784;48.490;9.688;2023-08-24T00:12:19;25.50;43.30
45044;DHT22;30784;48.490;9.688;2023-08-24T00:14:45;25.50;43.40
45044;DHT22;30784;48.490;9.688;2023-08-24T00:17:10;25.50;43.40
45044;DHT22;30784;48.490;9.688;2023-08-24T00:19:36;25.40;43.40
45044;DHT22;30784;48.490;9.688;2023-08-24T00:22:01;25.40;43.60
45044;DHT22;30784;48.490;9.688;2023-08-24T00:24:27;25.40;43.60
45044;DHT22;30784;48.490;9.688;2023-08-24T00:26:52;25.40;43.70
45044;DHT22;30784;48.490;9.688;2023-08-24T00:29:18;25.40;43.90
45044;DHT22;30784;48.490;9.688;2023-08-24T00:31:43;25.40;44.00
45044;DHT22;30784;48.490;9.688;2023-08-24T00:34:09;25.30;44.10
45044;DHT22;30784;48.490;9.688;2023-08-24T00:36:35;25.30;44.10
45044;DHT22;30784;48.490;9.688;2023-08-24T00:39:00;25.30;44.30
45044;DHT22;30784;48.490;9.688;2023-08-24T00:41:26;25.30;44.30
45044;DHT22;30784;48.490;9.688;2023-08-24T00:43:51;25.30;44.50
45044;DHT22;30784;48.490;9.688;2023-08-24T00:46:17;25.20;44.30
45044;DHT22;30784;48.490;9.688;2023-08-24T00:48:43;25.20;44.50
45044;DHT22;30784;48.490;9.688;2023-08-24T00:51:09;25.20;44.50
45044;DHT22;30784;48.490;9.688;2023-08-24T00:53:35;25.10;44.50
45044;DHT22;30784;48.490;9.688;2023-08-24T00:56:03;25.10;44.50
45044;DHT22;30784;48.490;9.688;2023-08-24T00:58:28;25.10;44.40
45044;DHT22;30784;48.490;9.688;2023-08-24T01:00:55;25.10;44.50
45044;DHT22;30784;48.490;9.688;2023-08-24T01:03:22;25.10;44.50
45044;DHT22;30784;48.490;9.688;2023-08-24T01:05:49;25.10;44.60
45044;DHT22;30784;48.490;9.688;2023-08-24T01:08:14;25.10;44.70
45044;DHT22;30784;48.490;9.688;2023-08-24T01:11:02;25.00;44.60
45044;DHT22;30784;48.490;9.688;2023-08-24T01:14:08;25.00;44.20
45044;DHT22;30784;48.490;9.688;2023-08-24T01:16:35;25.00;44.20
45044;DHT22;30784;48.490;9.688;2023-08-24T01:19:07;25.00;44.60
45044;DHT22;30784;48.490;9.688;2023-08-24T01:21:37;25.00;44.60
45044;DHT22;30784;48.490;9.688;2023-08-24T01:24:20;25.00;44.70
45044;DHT22;30784;48.490;9.688;2023-08-24T01:26:53;25.00;44.40
45044;DHT22;30784;48.490;9.688;2023-08-24T01:29:20;24.90;44.60
45044;DHT22;30784;48.490;9.688;2023-08-24T01:31:48;25.00;44.80
45044;DHT22;30784;48.490;9.688;2023-08-24T01:34:14;24.90;44.60
45044;DHT22;30784;48.490;9.688;2023-08-24T01:36:40;25.00;44.60
45044;DHT22;30784;48.490;9.688;2023-08-24T01:41:39;24.80;44.70
45044;DHT22;30784;48.490;9.688;2023-08-24T01:44:09;24.80;44.70
45044;DHT22;30784;48.490;9.688;2023-08-24T01:46:37;24.80;44.90
45044;DHT22;30784;48.490;9.688;2023-08-24T01:49:05;24.80;44.90
45044;DHT22;30784;48.490;9.688;2023-08-24T01:51:33;24.70;44.90
45044;DHT22;30784;48.490;9.688;2023-08-24T01:53:59;24.70;44.90
45044;DHT22;30784;48.490;9.688;2023-08-24T01:56:25;24.80;45.10
45044;DHT22;30784;48.490;9.688;2023-08-24T01:58:50;24.70;45.20
45044;DHT22;30784;48.490;9.688;2023-08-24T02:01:16;24.70;45.20
45044;DHT22;30784;48.490;9.688;2023-08-24T02:03:41;24.70;45.10
45044;DHT22;30784;48.490;9.688;2023-08-24T02:06:07;24.70;45.10
45044;DHT22;30784;48.490;9.688;2023-08-24T02:08:33;24.70;45.10
45044;DHT22;30784;48.490;9.688;2023-08-24T02:10:59;24.70;45.10
45044;DHT22;30784;48.490;9.688;2023-08-24T02:13:24;24.70;45.30
45044;DHT22;30784;48.490;9.688;2023-08-24T02:15:50;24.70;45.40
45044;DHT22;30784;48.490;9.688;2023-08-24T02:21:38;24.70;45.10
45044;DHT22;30784;48.490;9.688;2023-08-24T02:24:04;24.70;45.50
45044;DHT22;30784;48.490;9.688;2023-08-24T02:26:30;24.70;45.60
45044;DHT22;30784;48.490;9.688;2023-08-24T02:28:57;24.70;45.60
45044;DHT22;30784;48.490;9.688;2023-08-24T02:31:23;24.70;45.80
45044;DHT22;30784;48.490;9.688;2023-08-24T02:33:48;24.60;45.80
45044;DHT22;30784;48.490;9.688;2023-08-24T02:36:14;24.60;45.80
45044;DHT22;30784;48.490;9.688;2023-08-24T02:38:40;24.60;45.90
45044;DHT22;30784;48.490;9.688;2023-08-24T02:41:07;24.60;45.90
45044;DHT22;30784;48.490;9.688;2023-08-24T02:43:33;24.60;46.00
45044;DHT22;30784;48.490;9.688;2023-08-24T02:46:00;24.60;45.90
45044;DHT22;30784;48.490;9.688;2023-08-24T02:48:26;24.60;46.00
45044;DHT22;30784;48.490;9.688;2023-08-24T02:50:52;24.60;46.10
45044;DHT22;30784;48.490;9.688;2023-08-24T02:53:18;24.50;46.60
45044;DHT22;30784;48.490;9.688;2023-08-24T02:55:43;24.60;46.30
45044;DHT22;30784;48.490;9.688;2023-08-24T02:58:09;24.50;46.30
45044;DHT22;30784;48.490;9.688;2023-08-24T03:00:38;24.50;46.20
45044;DHT22;30784;48.490;9.688;2023-08-24T03:03:04;24.60;46.30
45044;DHT22;30784;48.490;9.688;2023-08-24T03:05:31;24.50;46.30
45044;DHT22;30784;48.490;9.688;2023-08-24T03:07:57;24.50;46.40
45044;DHT22;30784;48.490;9.688;2023-08-24T03:10:23;24.60;46.50
45044;DHT22;30784;48.490;9.688;2023-08-24T03:12:49;24.50;46.50
45044;DHT22;30784;48.490;9.688;2023-08-24T03:15:14;24.40;46.60
45044;DHT22;30784;48.490;9.688;2023-08-24T03:17:40;24.40;46.60
45044;DHT22;30784;48.490;9.688;2023-08-24T03:20:06;24.40;46.70
45044;DHT22;30784;48.490;9.688;2023-08-24T03:22:32;24.40;46.70
45044;DHT22;30784;48.490;9.688;2023-08-24T03:24:57;24.40;46.70
45044;DHT22;30784;48.490;9.688;2023-08-24T03:27:23;24.30;46.70
45044;DHT22;30784;48.490;9.688;2023-08-24T03:29:48;24.30;46.70
45044;DHT22;30784;48.490;9.688;2023-08-24T03:32:14;24.30;46.80
45044;DHT22;30784;48.490;9.688;2023-08-24T03:34:39;24.30;46.90
45044;DHT22;30784;48.490;9.688;2023-08-24T03:37:05;24.30;46.90
45044;DHT22;30784;48.490;9.688;2023-08-24T03:39:31;24.20;46.90
45044;DHT22;30784;48.490;9.688;2023-08-24T03:41:56;24.30;47.00
45044;DHT22;30784;48.490;9.688;2023-08-24T03:44:22;24.30;47.20
45044;DHT22;30784;48.490;9.688;2023-08-24T03:46:47;24.20;47.10
45044;DHT22;30784;48.490;9.688;2023-08-24T03:49:13;24.20;47.10
45044;DHT22;30784;48.490;9.688;2023-08-24T03:51:38;24.20;47.30
45044;DHT22;30784;48.490;9.688;2023-08-24T03:54:04;24.20;47.30
45044;DHT22;30784;48.490;9.688;2023-08-24T03:56:31;24.20;47.30
45044;DHT22;30784;48.490;9.688;2023-08-24T03:58:56;24.20;47.30
45044;DHT22;30784;48.490;9.688;2023-08-24T04:01:22;24.20;47.30
45044;DHT22;30784;48.490;9.688;2023-08-24T04:03:47;24.10;47.30
45044;DHT22;30784;48.490;9.688;2023-08-24T04:06:13;24.10;47.20
45044;DHT22;30784;48.490;9.688;2023-08-24T04:12:07;24.10;47.10
45044;DHT22;30784;48.490;9.688;2023-08-24T04:14:33;24.10;47.40
45044;DHT22;30784;48.490;9.688;2023-08-24T04:16:59;24.10;47.40
45044;DHT22;30784;48.490;9.688;2023-08-24T04:19:24;24.10;47.40
45044;DHT22;30784;48.490;9.688;2023-08-24T04:21:50;24.00;47.50
45044;DHT22;30784;48.490;9.688;2023-08-24T04:24:15;24.00;47.60
45044;DHT22;30784;48.490;9.688;2023-08-24T04:26:41;24.00;47.70
45044;DHT22;30784;48.490;9.688;2023-08-24T04:29:06;24.00;47.70
45044;DHT22;30784;48.490;9.688;2023-08-24T04:31:32;24.00;47.80
45044;DHT22;30784;48.490;9.688;2023-08-24T04:33:57;23.90;47.70
45044;DHT22;30784;48.490;9.688;2023-08-24T04:36:23;23.90;47.80
45044;DHT22;30784;48.490;9.688;2023-08-24T04:38:48;23.90;47.90
45044;DHT22;30784;48.490;9.688;2023-08-24T04:41:14;23.90;47.80
45044;DHT22;30784;48.490;9.688;2023-08-24T04:43:39;24.00;48.00
45044;DHT22;30784;48.490;9.688;2023-08-24T04:46:05;23.90;48.00
45044;DHT22;30784;48.490;9.688;2023-08-24T04:48:30;24.00;47.90
45044;DHT22;30784;48.490;9.688;2023-08-24T04:50:58;23.90;47.90
45044;DHT22;30784;48.490;9.688;2023-08-24T04:53:24;23.90;48.10
45044;DHT22;30784;48.490;9.688;2023-08-24T04:55:50;23.90;48.20
45044;DHT22;30784;48.490;9.688;2023-08-24T04:58:16;23.90;48.10
45044;DHT22;30784;48.490;9.688;2023-08-24T05:00:42;23.80;48.10
45044;DHT22;30784;48.490;9.688;2023-08-24T05:03:08;23.90;48.20
45044;DHT22;30784;48.490;9.688;2023-08-24T05:05:34;23.90;48.30
45044;DHT22;30784;48.490;9.688;2023-08-24T05:08:01;23.80;48.30
45044;DHT22;30784;48.490;9.688;2023-08-24T05:10:30;23.80;48.40
45044;DHT22;30784;48.490;9.688;2023-08-24T05:12:57;23.90;48.40
45044;DHT22;30784;48.490;9.688;2023-08-24T05:15:22;23.90;48.40
45044;DHT22;30784;48.490;9.688;2023-08-24T05:17:48;23.90;48.50
45044;DHT22;30784;48.490;9.688;2023-08-24T05:20:14;23.90;48.70
45044;DHT22;30784;48.490;9.688;2023-08-24T05:22:40;23.90;48.70
45044;DHT22;30784;48.490;9.688;2023-08-24T05:25:06;23.90;48.80
45044;DHT22;30784;48.490;9.688;2023-08-24T05:27:32;23.80;48.80
45044;DHT22;30784;48.490;9.688;2023-08-24T05:29:57;23.90;49.00
45044;DHT22;30784;48.490;9.688;2023-08-24T05:32:23;23.70;49.10
45044;DHT22;30784;48.490;9.688;2023-08-24T05:34:49;23.80;49.30
45044;DHT22;30784;48.490;9.688;2023-08-24T05:37:14;23.70;49.30
45044;DHT22;30784;48.490;9.688;2023-08-24T05:39:40;23.80;49.40
45044;DHT22;30784;48.490;9.688;2023-08-24T05:42:06;23.80;49.50
45044;DHT22;30784;48.490;9.688;2023-08-24T05:44:31;23.70;49.50
45044;DHT22;30784;48.490;9.688;2023-08-24T05:46:57;23.60;49.70
45044;DHT22;30784;48.490;9.688;2023-08-24T05:49:23;23.60;49.90
45044;DHT22;30784;48.490;9.688;2023-08-24T05:51:50;23.60;50.00
45044;DHT22;30784;48.490;9.688;2023-08-24T05:54:16;23.50;50.00
45044;DHT22;30784;48.490;9.688;2023-08-24T05:56:45;23.50;50.20
45044;DHT22;30784;48.490;9.688;2023-08-24T05:59:11;23.50;50.30
45044;DHT22;30784;48.490;9.688;2023-08-24T06:01:37;23.50;50.40
45044;DHT22;30784;48.490;9.688;2023-08-24T06:04:06;23.40;50.50
45044;DHT22;30784;48.490;9.688;2023-08-24T06:06:32;23.50;50.70
45044;DHT22;30784;48.490;9.688;2023-08-24T06:08:58;23.40;50.80
45044;DHT22;30784;48.490;9.688;2023-08-24T06:11:23;23.40;50.90
45044;DHT22;30784;48.490;9.688;2023-08-24T06:13:49;23.40;50.90
45044;DHT22;30784;48.490;9.688;2023-08-24T06:16:17;23.40;51.20
45044;DHT22;30784;48.490;9.688;2023-08-24T06:18:42;23.40;51.50
45044;DHT22;30784;48.490;9.688;2023-08-24T06:21:08;23.50;51.70
45044;DHT22;30784;48.490;9.688;2023-08-24T06:23:33;23.40;51.60
45044;DHT22;30784;48.490;9.688;2023-08-24T06:25:59;23.50;51.60
45044;DHT22;30784;48.490;9.688;2023-08-24T06:28:26;23.50;51.70
45044;DHT22;30784;48.490;9.688;2023-08-24T06:30:52;23.60;51.60
45044;DHT22;30784;48.490;9.688;2023-08-24T06:33:17;23.70;51.80
45044;DHT22;30784;48.490;9.688;2023-08-24T06:35:43;23.80;51.90
45044;DHT22;30784;48.490;9.688;2023-08-24T06:38:09;23.80;51.80
45044;DHT22;30784;48.490;9.688;2023-08-24T06:40:34;23.90;51.90
45044;DHT22;30784;48.490;9.688;2023-08-24T06:43:00;24.10;51.90
45044;DHT22;30784;48.490;9.688;2023-08-24T06:45:26;24.20;51.80
45044;DHT22;30784;48.490;9.688;2023-08-24T06:47:51;24.30;51.50
45044;DHT22;30784;48.490;9.688;2023-08-24T06:50:17;24.40;51.40
45044;DHT22;30784;48.490;9.688;2023-08-24T06:52:44;24.50;51.30
45044;DHT22;30784;48.490;9.688;2023-08-24T06:55:10;24.50;51.20
45044;DHT22;30784;48.490;9.688;2023-08-24T06:57:37;24.60;51.30
45044;DHT22;30784;48.490;9.688;2023-08-24T07:00:03;24.60;51.30
45044;DHT22;30784;48.490;9.688;2023-08-24T07:02:33;24.60;51.40
45044;DHT22;30784;48.490;9.688;2023-08-24T07:04:58;24.60;51.50
45044;DHT22;30784;48.490;9.688;2023-08-24T07:07:24;24.60;51.60
45044;DHT22;30784;48.490;9.688;2023-08-24T07:09:50;24.60;51.70
45044;DHT22;30784;48.490;9.688;2023-08-24T07:12:16;24.60;51.70
45044;DHT22;30784;48.490;9.688;2023-08-24T07:14:42;24.60;51.70
45044;DHT22;30784;48.490;9.688;2023-08-24T07:17:07;24.70;51.70
45044;DHT22;30784;48.490;9.688;2023-08-24T07:19:33;24.70;51.70
45044;DHT22;30784;48.490;9.688;2023-08-24T07:21:59;24.70;51.80
45044;DHT22;30784;48.490;9.688;2023-08-24T07:24:24;24.70;51.80
45044;DHT22;30784;48.490;9.688;2023-08-24T07:26:55;24.70;51.80
45044;DHT22;30784;48.490;9.688;2023-08-24T07:29:20;24.70;51.80
45044;DHT22;30784;48.490;9.688;2023-08-24T07:31:46;24.80;51.90
45044;DHT22;30784;48.490;9.688;2023-08-24T07:34:12;24.80;52.00
45044;DHT22;30784;48.490;9.688;2023-08-24T07:36:37;24.80;52.00
45044;DHT22;30784;48.490;9.688;2023-08-24T07:39:03;24.70;51.90
45044;DHT22;30784;48.490;9.688;2023-08-24T07:41:29;24.90;52.00
45044;DHT22;30784;48.490;9.688;2023-08-24T07:43:55;24.90;52.00
45044;DHT22;30784;48.490;9.688;2023-08-24T07:46:20;24.90;52.10
45044;DHT22;30784;48.490;9.688;2023-08-24T07:48:46;25.00;51.90
45044;DHT22;30784;48.490;9.688;2023-08-24T07:51:12;25.10;52.00
45044;DHT22;30784;48.490;9.688;2023-08-24T07:53:37;25.10;52.10
45044;DHT22;30784;48.490;9.688;2023-08-24T07:56:03;25.10;52.00
45044;DHT22;30784;48.490;9.688;2023-08-24T07:58:29;25.20;52.10
45044;DHT22;30784;48.490;9.688;2023-08-24T08:00:56;25.20;52.10
45044;DHT22;30784;48.490;9.688;2023-08-24T08:03:22;25.20;52.20
45044;DHT22;30784;48.490;9.688;2023-08-24T08:05:47;25.30;52.40
45044;DHT22;30784;48.490;9.688;2023-08-24T08:08:14;25.30;52.60
45044;DHT22;30784;48.490;9.688;2023-08-24T08:10:40;25.70;52.90
45044;DHT22;30784;48.490;9.688;2023-08-24T08:15:32;25.70;52.60
45044;DHT22;30784;48.490;9.688;2023-08-24T08:17:57;25.90;53.20
45044;DHT22;30784;48.490;9.688;2023-08-24T08:20:23;26.10;53.00
45044;DHT22;30784;48.490;9.688;2023-08-24T08:22:49;26.30;53.00
45044;DHT22;30784;48.490;9.688;2023-08-24T08:25:15;26.50;52.80
45044;DHT22;30784;48.490;9.688;2023-08-24T08:27:43;26.70;52.70
45044;DHT22;30784;48.490;9.688;2023-08-24T08:30:09;27.00;52.60
45044;DHT22;30784;48.490;9.688;2023-08-24T08:32:35;27.20;52.50
45044;DHT22;30784;48.490;9.688;2023-08-24T08:35:00;27.40;52.50
45044;DHT22;30784;48.490;9.688;2023-08-24T08:37:27;27.50;52.50
45044;DHT22;30784;48.490;9.688;2023-08-24T08:39:52;27.80;52.50
45044;DHT22;30784;48.490;9.688;2023-08-24T08:42:18;28.00;52.20
45044;DHT22;30784;48.490;9.688;2023-08-24T08:44:45;28.20;51.90
45044;DHT22;30784;48.490;9.688;2023-08-24T08:47:11;28.40;51.60
45044;DHT22;30784;48.490;9.688;2023-08-24T08:49:39;28.60;51.50
45044;DHT22;30784;48.490;9.688;2023-08-24T08:52:05;28.80;51.40
45044;DHT22;30784;48.490;9.688;2023-08-24T08:54:31;29.00;51.20
45044;DHT22;30784;48.490;9.688;2023-08-24T08:56:59;29.20;50.90
45044;DHT22;30784;48.490;9.688;2023-08-24T08:59:26;29.40;50.60
45044;DHT22;30784;48.490;9.688;2023-08-24T09:01:56;29.60;50.40
45044;DHT22;30784;48.490;9.688;2023-08-24T09:04:22;29.80;50.20
45044;DHT22;30784;48.490;9.688;2023-08-24T09:06:48;30.00;49.80
45044;DHT22;30784;48.490;9.688;2023-08-24T09:09:15;30.20;49.60
45044;DHT22;30784;48.490;9.688;2023-08-24T09:11:42;30.40;49.30
45044;DHT22;30784;48.490;9.688;2023-08-24T09:14:12;30.60;49.10
45044;DHT22;30784;48.490;9.688;2023-08-24T09:16:38;30.80;48.80
45044;DHT22;30784;48.490;9.688;2023-08-24T09:19:05;31.00;48.60
45044;DHT22;30784;48.490;9.688;2023-08-24T09:21:36;31.30;48.30
45044;DHT22;30784;48.490;9.688;2023-08-24T09:24:02;31.60;48.30
45044;DHT22;30784;48.490;9.688;2023-08-24T09:26:36;31.80;47.50
45044;DHT22;30784;48.490;9.688;2023-08-24T09:29:12;32.00;47.30
45044;DHT22;30784;48.490;9.688;2023-08-24T09:31:39;32.30;47.40
45044;DHT22;30784;48.490;9.688;2023-08-24T09:34:05;32.50;46.30
45044;DHT22;30784;48.490;9.688;2023-08-24T09:36:32;32.70;46.40
45044;DHT22;30784;48.490;9.688;2023-08-24T09:38:59;33.00;46.00
45044;DHT22;30784;48.490;9.688;2023-08-24T09:41:44;33.30;45.80
45044;DHT22;30784;48.490;9.688;2023-08-24T09:44:10;33.50;45.50
45044;DHT22;30784;48.490;9.688;2023-08-24T09:46:37;33.70;44.30
45044;DHT22;30784;48.490;9.688;2023-08-24T09:49:05;34.00;43.80
45044;DHT22;30784;48.490;9.688;2023-08-24T09:51:32;34.10;43.00
45044;DHT22;30784;48.490;9.688;2023-08-24T09:53:58;34.20;42.50
45044;DHT22;30784;48.490;9.688;2023-08-24T09:56:28;34.30;42.40
45044;DHT22;30784;48.490;9.688;2023-08-24T09:58:55;34.50;42.10
45044;DHT22;30784;48.490;9.688;2023-08-24T10:01:23;34.60;41.90
45044;DHT22;30784;48.490;9.688;2023-08-24T10:03:51;34.70;41.20
45044;DHT22;30784;48.490;9.688;2023-08-24T10:06:21;34.70;41.20
45044;DHT22;30784;48.490;9.688;2023-08-24T10:08:58;34.80;41.10
45044;DHT22;30784;48.490;9.688;2023-08-24T10:11:28;34.90;40.90
45044;DHT22;30784;48.490;9.688;2023-08-24T10:14:21;35.00;40.30
45044;DHT22;30784;48.490;9.688;2023-08-24T10:16:49;35.00;40.50
45044;DHT22;30784;48.490;9.688;2023-08-24T10:19:16;35.00;39.80
45044;DHT22;30784;48.490;9.688;2023-08-24T10:21:43;35.00;39.30
45044;DHT22;30784;48.490;9.688;2023-08-24T10:24:09;35.00;38.90
45044;DHT22;30784;48.490;9.688;2023-08-24T10:26:39;35.00;38.90
45044;DHT22;30784;48.490;9.688;2023-08-24T10:29:06;35.10;38.60
45044;DHT22;30784;48.490;9.688;2023-08-24T10:31:32;35.10;38.00
45044;DHT22;30784;48.490;9.688;2023-08-24T10:33:58;35.10;37.40
45044;DHT22;30784;48.490;9.688;2023-08-24T10:36:24;35.10;37.70
45044;DHT22;30784;48.490;9.688;2023-08-24T10:38:55;35.10;37.60
45044;DHT22;30784;48.490;9.688;2023-08-24T10:41:26;35.10;37.70
45044;DHT22;30784;48.490;9.688;2023-08-24T10:43:52;35.20;37.80
45044;DHT22;30784;48.490;9.688;2023-08-24T10:46:17;35.30;37.90
45044;DHT22;30784;48.490;9.688;2023-08-24T10:53:51;35.40;37.20
45044;DHT22;30784;48.490;9.688;2023-08-24T10:56:17;35.50;36.80
45044;DHT22;30784;48.490;9.688;2023-08-24T10:58:47;35.60;36.80
45044;DHT22;30784;48.490;9.688;2023-08-24T11:01:32;35.80;36.60
45044;DHT22;30784;48.490;9.688;2023-08-24T11:03:57;35.80;36.20
45044;DHT22;30784;48.490;9.688;2023-08-24T11:06:26;35.90;36.10
45044;DHT22;30784;48.490;9.688;2023-08-24T11:09:09;36.00;35.50
45044;DHT22;30784;48.490;9.688;2023-08-24T11:11:39;36.00;35.70
45044;DHT22;30784;48.490;9.688;2023-08-24T11:14:19;36.00;34.80
45044;DHT22;30784;48.490;9.688;2023-08-24T11:16:48;36.00;35.10
45044;DHT22;30784;48.490;9.688;2023-08-24T11:19:15;36.10;34.90
45044;DHT22;30784;48.490;9.688;2023-08-24T11:21:42;36.00;34.90
45044;DHT22;30784;48.490;9.688;2023-08-24T11:24:09;36.00;34.60
45044;DHT22;30784;48.490;9.688;2023-08-24T11:26:40;36.00;34.90
45044;DHT22;30784;48.490;9.688;2023-08-24T11:29:06;36.00;34.90
45044;DHT22;30784;48.490;9.688;2023-08-24T11:31:33;36.10;35.00
45044;DHT22;30784;48.490;9.688;2023-08-24T11:33:59;36.00;34.90
45044;DHT22;30784;48.490;9.688;2023-08-24T11:36:25;36.10;34.80
45044;DHT22;30784;48.490;9.688;2023-08-24T11:38:52;36.10;34.70
45044;DHT22;30784;48.490;9.688;2023-08-24T11:41:19;36.10;34.70
45044;DHT22;30784;48.490;9.688;2023-08-24T11:43:47;36.10;34.70
45044;DHT22;30784;48.490;9.688;2023-08-24T11:46:19;36.10;34.60
45044;DHT22;30784;48.490;9.688;2023-08-24T11:48:45;36.10;34.90
45044;DHT22;30784;48.490;9.688;2023-08-24T11:51:12;36.10;35.00
45044;DHT22;30784;48.490;9.688;2023-08-24T11:53:44;36.00;35.10
45044;DHT22;30784;48.490;9.688;2023-08-24T11:56:11;36.10;35.30
45044;DHT22;30784;48.490;9.688;2023-08-24T12:02:00;36.20;35.40
45044;DHT22;30784;48.490;9.688;2023-08-24T12:04:25;36.20;35.50
45044;DHT22;30784;48.490;9.688;2023-08-24T12:06:51;36.20;35.40
45044;DHT22;30784;48.490;9.688;2023-08-24T12:09:17;36.30;35.20
45044;DHT22;30784;48.490;9.688;2023-08-24T12:11:42;36.20;34.80
45044;DHT22;30784;48.490;9.688;2023-08-24T12:14:17;36.30;34.60
45044;DHT22;30784;48.490;9.688;2023-08-24T12:16:42;36.30;34.80
45044;DHT22;30784;48.490;9.688;2023-08-24T12:19:08;36.30;34.70
45044;DHT22;30784;48.490;9.688;2023-08-24T12:21:34;36.30;34.50
45044;DHT22;30784;48.490;9.688;2023-08-24T12:24:00;36.30;34.10
45044;DHT22;30784;48.490;9.688;2023-08-24T12:26:27;36.20;34.40
45044;DHT22;30784;48.490;9.688;2023-08-24T12:28:53;36.20;34.30
45044;DHT22;30784;48.490;9.688;2023-08-24T12:31:19;36.20;34.40
45044;DHT22;30784;48.490;9.688;2023-08-24T12:33:45;36.20;34.60
45044;DHT22;30784;48.490;9.688;2023-08-24T12:36:12;36.10;34.10
45044;DHT22;30784;48.490;9.688;2023-08-24T12:38:37;36.10;34.40
45044;DHT22;30784;48.490;9.688;2023-08-24T12:41:04;36.00;34.10
45044;DHT22;30784;48.490;9.688;2023-08-24T12:43:29;36.00;34.00
45044;DHT22;30784;48.490;9.688;2023-08-24T12:45:55;36.00;33.90
45044;DHT22;30784;48.490;9.688;2023-08-24T12:48:20;36.00;34.10
45044;DHT22;30784;48.490;9.688;2023-08-24T12:50:46;35.90;33.80
45044;DHT22;30784;48.490;9.688;2023-08-24T12:53:11;35.90;33.90
45044;DHT22;30784;48.490;9.688;2023-08-24T12:55:39;35.90;34.00
45044;DHT22;30784;48.490;9.688;2023-08-24T12:58:05;35.90;34.10
45044;DHT22;30784;48.490;9.688;2023-08-24T13:00:31;35.80;34.20
45044;DHT22;30784;48.490;9.688;2023-08-24T13:02:57;35.80;34.30
45044;DHT22;30784;48.490;9.688;2023-08-24T13:05:22;35.70;34.50
45044;DHT22;30784;48.490;9.688;2023-08-24T13:07:48;35.60;34.40
45044;DHT22;30784;48.490;9.688;2023-08-24T13:10:14;35.50;33.30
45044;DHT22;30784;48.490;9.688;2023-08-24T13:12:40;35.50;33.80
45044;DHT22;30784;48.490;9.688;2023-08-24T13:15:06;35.40;33.80
45044;DHT22;30784;48.490;9.688;2023-08-24T13:17:32;35.40;33.90
45044;DHT22;30784;48.490;9.688;2023-08-24T13:19:57;35.40;33.50
45044;DHT22;30784;48.490;9.688;2023-08-24T13:22:23;35.40;33.70
45044;DHT22;30784;48.490;9.688;2023-08-24T13:24:49;35.40;33.60
45044;DHT22;30784;48.490;9.688;2023-08-24T13:27:14;35.30;33.80
45044;DHT22;30784;48.490;9.688;2023-08-24T13:29:40;35.20;33.80
45044;DHT22;30784;48.490;9.688;2023-08-24T13:32:06;35.20;34.10
45044;DHT22;30784;48.490;9.688;2023-08-24T13:34:32;35.20;34.40
45044;DHT22;30784;48.490;9.688;2023-08-24T13:36:58;35.20;34.60
45044;DHT22;30784;48.490;9.688;2023-08-24T13:39:26;35.30;35.10
45044;DHT22;30784;48.490;9.688;2023-08-24T13:41:58;35.30;35.20
45044;DHT22;30784;48.490;9.688;2023-08-24T13:44:24;35.30;35.20
45044;DHT22;30784;48.490;9.688;2023-08-24T13:46:50;35.30;35.10
45044;DHT22;30784;48.490;9.688;2023-08-24T13:49:18;35.30;35.60
45044;DHT22;30784;48.490;9.688;2023-08-24T13:51:44;35.30;36.30
45044;DHT22;30784;48.490;9.688;2023-08-24T13:54:16;35.30;35.60
45044;DHT22;30784;48.490;9.688;2023-08-24T13:56:46;35.30;35.90
45044;DHT22;30784;48.490;9.688;2023-08-24T13:59:13;35.30;36.10
45044;DHT22;30784;48.490;9.688;2023-08-24T14:01:39;35.30;36.10
45044;DHT22;30784;48.490;9.688;2023-08-24T14:04:05;35.40;36.10
45044;DHT22;30784;48.490;9.688;2023-08-24T14:06:31;35.40;36.50
45044;DHT22;30784;48.490;9.688;2023-08-24T14:08:57;35.40;36.40
45044;DHT22;30784;48.490;9.688;2023-08-24T14:11:23;35.40;36.20
45044;DHT22;30784;48.490;9.688;2023-08-24T14:13:49;35.30;36.00
45044;DHT22;30784;48.490;9.688;2023-08-24T14:16:15;35.20;35.80
45044;DHT22;30784;48.490;9.688;2023-08-24T14:18:40;35.10;35.90
45044;DHT22;30784;48.490;9.688;2023-08-24T14:21:06;35.00;35.60
45044;DHT22;30784;48.490;9.688;2023-08-24T14:23:31;35.00;35.80
45044;DHT22;30784;48.490;9.688;2023-08-24T14:25:57;35.00;35.90
45044;DHT22;30784;48.490;9.688;2023-08-24T14:28:23;35.00;36.00
45044;DHT22;30784;48.490;9.688;2023-08-24T14:30:50;34.90;35.80
45044;DHT22;30784;48.490;9.688;2023-08-24T14:33:15;34.90;36.10
45044;DHT22;30784;48.490;9.688;2023-08-24T14:35:48;34.90;36.30
45044;DHT22;30784;48.490;9.688;2023-08-24T14:38:14;34.90;36.40
45044;DHT22;30784;48.490;9.688;2023-08-24T14:40:39;35.00;36.50
45044;DHT22;30784;48.490;9.688;2023-08-24T14:43:05;35.00;36.70
45044;DHT22;30784;48.490;9.688;2023-08-24T14:45:30;35.10;36.70
45044;DHT22;30784;48.490;9.688;2023-08-24T14:47:56;35.10;36.60
45044;DHT22;30784;48.490;9.688;2023-08-24T14:50:21;35.10;36.80
45044;DHT22;30784;48.490;9.688;2023-08-24T14:52:47;35.10;36.70
45044;DHT22;30784;48.490;9.688;2023-08-24T14:55:12;35.10;36.60
45044;DHT22;30784;48.490;9.688;2023-08-24T14:57:38;35.10;36.60
45044;DHT22;30784;48.490;9.688;2023-08-24T15:00:04;35.00;35.90
45044;DHT22;30784;48.490;9.688;2023-08-24T15:02:30;35.00;36.00
45044;DHT22;30784;48.490;9.688;2023-08-24T15:04:57;35.10;36.30
45044;DHT22;30784;48.490;9.688;2023-08-24T15:07:23;35.10;35.90
45044;DHT22;30784;48.490;9.688;2023-08-24T15:09:48;35.10;35.90
45044;DHT22;30784;48.490;9.688;2023-08-24T15:12:14;35.10;36.10
45044;DHT22;30784;48.490;9.688;2023-08-24T15:14:56;35.10;36.20
45044;DHT22;30784;48.490;9.688;2023-08-24T15:17:22;35.00;36.20
45044;DHT22;30784;48.490;9.688;2023-08-24T15:19:48;35.20;36.30
45044;DHT22;30784;48.490;9.688;2023-08-24T15:22:13;35.20;36.30
45044;DHT22;30784;48.490;9.688;2023-08-24T15:24:39;35.30;35.70
45044;DHT22;30784;48.490;9.688;2023-08-24T15:27:04;35.30;35.30
45044;DHT22;30784;48.490;9.688;2023-08-24T15:29:30;35.40;35.10
45044;DHT22;30784;48.490;9.688;2023-08-24T15:31:55;35.40;35.10
45044;DHT22;30784;48.490;9.688;2023-08-24T15:34:21;35.50;35.20
45044;DHT22;30784;48.490;9.688;2023-08-24T15:36:46;35.50;35.10
45044;DHT22;30784;48.490;9.688;2023-08-24T15:39:12;35.50;35.20
45044;DHT22;30784;48.490;9.688;2023-08-24T15:41:37;35.50;35.20
45044;DHT22;30784;48.490;9.688;2023-08-24T15:44:03;35.50;35.20
45044;DHT22;30784;48.490;9.688;2023-08-24T15:46:29;35.60;35.30